sensor_id;sensor_type;location;lat;lon;timestamp;temperature;humidity
54614;DHT22;40514;52.758;6.360;2022-11-14T00:00:59;7.00;99.90
54614;DHT22;40514;52.758;6.360;2022-11-14T00:03:24;6.90;99.90
54614;DHT22;40514;52.758;6.360;2022-11-14T00:05:50;6.90;99.90
54614;DHT22;40514;52.758;6.360;2022-11-14T00:08:22;6.90;99.90
54614;DHT22;40514;52.758;6.360;2022-11-14T00:10:49;6.90;99.90
54614;DHT22;40514;52.758;6.360;2022-11-14T00:13:16;6.90;99.90
54614;DHT22;40514;52.758;6.360;2022-11-14T00:15:42;6.90;99.90
54614;DHT22;40514;52.758;6.360;2022-11-14T00:18:08;7.00;99.90
54614;DHT22;40514;52.758;6.360;2022-11-14T00:20:34;6.90;99.90
54614;DHT22;40514;52.758;6.360;2022-11-14T00:23:00;7.00;99.90
54614;DHT22;40514;52.758;6.360;2022-11-14T00:25:25;7.00;99.90
54614;DHT22;40514;52.758;6.360;2022-11-14T00:27:51;7.00;99.90
54614;DHT22;40514;52.758;6.360;2022-11-14T00:30:16;7.00;99.90
54614;DHT22;40514;52.758;6.360;2022-11-14T00:32:42;7.00;99.90
54614;DHT22;40514;52.758;6.360;2022-11-14T00:35:08;7.00;99.90
54614;DHT22;40514;52.758;6.360;2022-11-14T00:37:34;7.00;99.90
54614;DHT22;40514;52.758;6.360;2022-11-14T00:39:59;7.10;99.90
54614;DHT22;40514;52.758;6.360;2022-11-14T00:42:25;7.00;99.90
54614;DHT22;40514;52.758;6.360;2022-11-14T00:44:50;7.10;99.90
54614;DHT22;40514;52.758;6.360;2022-11-14T00:47:16;7.10;99.90
54614;DHT22;40514;52.758;6.360;2022-11-14T00:49:41;7.10;99.90
54614;DHT22;40514;52.758;6.360;2022-11-14T00:52:07;7.10;99.90
54614;DHT22;40514;52.758;6.360;2022-11-14T00:54:32;7.20;99.90
54614;DHT22;40514;52.758;6.360;2022-11-14T00:56:58;7.20;99.90
54614;DHT22;40514;52.758;6.360;2022-11-14T00:59:24;7.20;99.90
54614;DHT22;40514;52.758;6.360;2022-11-14T01:01:49;7.20;99.90
54614;DHT22;40514;52.758;6.360;2022-11-14T01:04:15;7.20;99.90
54614;DHT22;40514;52.758;6.360;2022-11-14T01:06:40;7.20;99.90
54614;DHT22;40514;52.758;6.360;2022-11-14T01:09:07;7.20;99.90
54614;DHT22;40514;52.758;6.360;2022-11-14T01:11:32;7.20;99.90
54614;DHT22;40514;52.758;6.360;2022-11-14T01:13:58;7.20;99.90
54614;DHT22;40514;52.758;6.360;2022-11-14T01:16:23;7.20;99.90
54614;DHT22;40514;52.758;6.360;2022-11-14T01:18:49;7.20;99.90
54614;DHT22;40514;52.758;6.360;2022-11-14T01:21:15;7.20;99.90
54614;DHT22;40514;52.758;6.360;2022-11-14T01:23:41;7.10;99.90
54614;DHT22;40514;52.758;6.360;2022-11-14T01:26:11;7.20;99.90
54614;DHT22;40514;52.758;6.360;2022-11-14T01:28:38;7.20;99.90
54614;DHT22;40514;52.758;6.360;2022-11-14T01:31:16;7.20;99.90
54614;DHT22;40514;52.758;6.360;2022-11-14T01:33:42;7.10;99.90
54614;DHT22;40514;52.758;6.360;2022-11-14T01:36:09;7.10;99.90
54614;DHT22;40514;52.758;6.360;2022-11-14T01:38:35;7.10;99.90
54614;DHT22;40514;52.758;6.360;2022-11-14T01:41:02;7.10;99.90
54614;DHT22;40514;52.758;6.360;2022-11-14T01:43:31;7.00;99.90
54614;DHT22;40514;52.758;6.360;2022-11-14T01:46:02;7.00;99.90
54614;DHT22;40514;52.758;6.360;2022-11-14T01:51:18;7.00;99.90
54614;DHT22;40514;52.758;6.360;2022-11-14T01:53:47;7.00;99.90
54614;DHT22;40514;52.758;6.360;2022-11-14T01:56:16;7.00;99.90
54614;DHT22;40514;52.758;6.360;2022-11-14T01:58:48;7.00;99.90
54614;DHT22;40514;52.758;6.360;2022-11-14T02:01:14;6.90;99.90
54614;DHT22;40514;52.758;6.360;2022-11-14T02:03:41;6.90;99.90
54614;DHT22;40514;52.758;6.360;2022-11-14T02:06:09;6.80;99.90
54614;DHT22;40514;52.758;6.360;2022-11-14T02:08:38;6.80;99.90
54614;DHT22;40514;52.758;6.360;2022-11-14T02:11:04;6.80;99.90
54614;DHT22;40514;52.758;6.360;2022-11-14T02:13:29;6.80;99.90
54614;DHT22;40514;52.758;6.360;2022-11-14T02:15:55;6.30;99.90
54614;DHT22;40514;52.758;6.360;2022-11-14T02:18:20;6.70;99.90
54614;DHT22;40514;52.758;6.360;2022-11-14T02:20:46;6.80;99.90
54614;DHT22;40514;52.758;6.360;2022-11-14T02:23:11;6.70;99.90
54614;DHT22;40514;52.758;6.360;2022-11-14T02:25:38;6.80;99.90
54614;DHT22;40514;52.758;6.360;2022-11-14T02:28:06;6.80;99.90
54614;DHT22;40514;52.758;6.360;2022-11-14T02:30:31;6.80;99.90
54614;DHT22;40514;52.758;6.360;2022-11-14T02:32:57;6.80;99.90
54614;DHT22;40514;52.758;6.360;2022-11-14T02:35:23;6.80;99.90
54614;DHT22;40514;52.758;6.360;2022-11-14T02:37:48;6.80;99.90
54614;DHT22;40514;52.758;6.360;2022-11-14T02:40:14;6.80;99.90
54614;DHT22;40514;52.758;6.360;2022-11-14T02:42:39;6.80;99.90
54614;DHT22;40514;52.758;6.360;2022-11-14T02:45:06;6.80;99.90
54614;DHT22;40514;52.758;6.360;2022-11-14T02:47:31;6.80;99.90
54614;DHT22;40514;52.758;6.360;2022-11-14T02:49:57;6.80;99.90
54614;DHT22;40514;52.758;6.360;2022-11-14T02:52:22;6.70;99.90
54614;DHT22;40514;52.758;6.360;2022-11-14T02:54:48;6.70;99.90
54614;DHT22;40514;52.758;6.360;2022-11-14T02:57:14;6.80;99.90
54614;DHT22;40514;52.758;6.360;2022-11-14T02:59:39;6.70;99.90
54614;DHT22;40514;52.758;6.360;2022-11-14T03:02:04;6.70;99.90
54614;DHT22;40514;52.758;6.360;2022-11-14T03:04:30;6.70;99.90
54614;DHT22;40514;52.758;6.360;2022-11-14T03:06:55;6.70;99.90
54614;DHT22;40514;52.758;6.360;2022-11-14T03:09:21;6.70;99.90
54614;DHT22;40514;52.758;6.360;2022-11-14T03:11:46;6.70;99.90
54614;DHT22;40514;52.758;6.360;2022-11-14T03:14:12;6.70;99.90
54614;DHT22;40514;52.758;6.360;2022-11-14T03:16:37;6.70;99.90
54614;DHT22;40514;52.758;6.360;2022-11-14T03:19:03;6.70;99.90
54614;DHT22;40514;52.758;6.360;2022-11-14T03:21:29;6.60;99.90
54614;DHT22;40514;52.758;6.360;2022-11-14T03:23:54;6.60;99.90
54614;DHT22;40514;52.758;6.360;2022-11-14T03:26:20;6.60;99.90
54614;DHT22;40514;52.758;6.360;2022-11-14T03:28:45;6.60;99.90
54614;DHT22;40514;52.758;6.360;2022-11-14T03:31:12;6.60;99.90
54614;DHT22;40514;52.758;6.360;2022-11-14T03:33:39;6.60;99.90
54614;DHT22;40514;52.758;6.360;2022-11-14T03:36:05;6.50;99.90
54614;DHT22;40514;52.758;6.360;2022-11-14T03:38:31;6.50;99.90
54614;DHT22;40514;52.758;6.360;2022-11-14T03:40:58;6.50;99.90
54614;DHT22;40514;52.758;6.360;2022-11-14T03:43:24;6.40;99.90
54614;DHT22;40514;52.758;6.360;2022-11-14T03:45:49;6.40;99.90
54614;DHT22;40514;52.758;6.360;2022-11-14T03:48:15;6.40;99.90
54614;DHT22;40514;52.758;6.360;2022-11-14T03:50:42;6.30;99.90
54614;DHT22;40514;52.758;6.360;2022-11-14T03:53:08;6.30;99.90
54614;DHT22;40514;52.758;6.360;2022-11-14T03:55:34;6.30;99.90
54614;DHT22;40514;52.758;6.360;2022-11-14T03:57:59;6.30;99.90
54614;DHT22;40514;52.758;6.360;2022-11-14T04:00:25;6.30;99.90
54614;DHT22;40514;52.758;6.360;2022-11-14T04:02:54;6.30;99.90
54614;DHT22;40514;52.758;6.360;2022-11-14T04:05:20;6.30;99.90
54614;DHT22;40514;52.758;6.360;2022-11-14T04:07:46;6.30;99.90
54614;DHT22;40514;52.758;6.360;2022-11-14T04:10:11;6.30;99.90
54614;DHT22;40514;52.758;6.360;2022-11-14T04:12:37;6.30;99.90
54614;DHT22;40514;52.758;6.360;2022-11-14T04:15:03;6.30;99.90
54614;DHT22;40514;52.758;6.360;2022-11-14T04:17:28;6.30;99.90
54614;DHT22;40514;52.758;6.360;2022-11-14T04:19:54;6.30;99.90
54614;DHT22;40514;52.758;6.360;2022-11-14T04:22:19;6.30;99.90
54614;DHT22;40514;52.758;6.360;2022-11-14T04:24:45;6.30;99.90
54614;DHT22;40514;52.758;6.360;2022-11-14T04:27:10;6.30;99.90
54614;DHT22;40514;52.758;6.360;2022-11-14T04:29:36;6.20;99.90
54614;DHT22;40514;52.758;6.360;2022-11-14T04:32:01;6.20;99.90
54614;DHT22;40514;52.758;6.360;2022-11-14T04:34:27;6.30;99.90
54614;DHT22;40514;52.758;6.360;2022-11-14T04:36:52;6.30;99.90
54614;DHT22;40514;52.758;6.360;2022-11-14T04:39:18;6.30;99.90
54614;DHT22;40514;52.758;6.360;2022-11-14T04:41:43;6.20;99.90
54614;DHT22;40514;52.758;6.360;2022-11-14T04:44:09;6.20;99.90
54614;DHT22;40514;52.758;6.360;2022-11-14T04:46:35;6.20;99.90
54614;DHT22;40514;52.758;6.360;2022-11-14T04:49:00;6.20;99.90
54614;DHT22;40514;52.758;6.360;2022-11-14T04:51:26;6.20;99.90
54614;DHT22;40514;52.758;6.360;2022-11-14T04:53:51;6.20;99.90
54614;DHT22;40514;52.758;6.360;2022-11-14T04:56:17;6.30;99.90
54614;DHT22;40514;52.758;6.360;2022-11-14T04:58:42;6.30;99.90
54614;DHT22;40514;52.758;6.360;2022-11-14T05:01:09;6.30;99.90
54614;DHT22;40514;52.758;6.360;2022-11-14T05:03:35;6.30;99.90
54614;DHT22;40514;52.758;6.360;2022-11-14T05:06:01;6.30;99.90
54614;DHT22;40514;52.758;6.360;2022-11-14T05:08:26;6.30;99.90
54614;DHT22;40514;52.758;6.360;2022-11-14T05:10:52;6.30;99.90
54614;DHT22;40514;52.758;6.360;2022-11-14T05:13:18;6.30;99.90
54614;DHT22;40514;52.758;6.360;2022-11-14T05:15:43;6.30;99.90
54614;DHT22;40514;52.758;6.360;2022-11-14T05:18:09;6.30;99.90
54614;DHT22;40514;52.758;6.360;2022-11-14T05:20:35;6.30;99.90
54614;DHT22;40514;52.758;6.360;2022-11-14T05:23:00;6.30;99.90
54614;DHT22;40514;52.758;6.360;2022-11-14T05:25:26;6.30;99.90
54614;DHT22;40514;52.758;6.360;2022-11-14T05:27:52;6.30;99.90
54614;DHT22;40514;52.758;6.360;2022-11-14T05:30:18;6.30;99.90
54614;DHT22;40514;52.758;6.360;2022-11-14T05:32:43;6.30;99.90
54614;DHT22;40514;52.758;6.360;2022-11-14T05:35:09;6.30;99.90
54614;DHT22;40514;52.758;6.360;2022-11-14T05:37:35;6.30;99.90
54614;DHT22;40514;52.758;6.360;2022-11-14T05:40:01;6.30;99.90
54614;DHT22;40514;52.758;6.360;2022-11-14T05:42:27;6.30;99.90
54614;DHT22;40514;52.758;6.360;2022-11-14T05:44:53;6.30;99.90
54614;DHT22;40514;52.758;6.360;2022-11-14T05:47:18;6.30;99.90
54614;DHT22;40514;52.758;6.360;2022-11-14T05:49:44;6.30;99.90
54614;DHT22;40514;52.758;6.360;2022-11-14T05:52:10;6.30;99.90
54614;DHT22;40514;52.758;6.360;2022-11-14T05:54:35;6.30;99.90
54614;DHT22;40514;52.758;6.360;2022-11-14T05:57:01;6.30;99.90
54614;DHT22;40514;52.758;6.360;2022-11-14T05:59:26;6.30;99.90
54614;DHT22;40514;52.758;6.360;2022-11-14T06:01:52;6.30;99.90
54614;DHT22;40514;52.758;6.360;2022-11-14T06:04:18;6.30;99.90
54614;DHT22;40514;52.758;6.360;2022-11-14T06:06:44;6.30;99.90
54614;DHT22;40514;52.758;6.360;2022-11-14T06:09:09;6.30;99.90
54614;DHT22;40514;52.758;6.360;2022-11-14T06:11:35;6.30;99.90
54614;DHT22;40514;52.758;6.360;2022-11-14T06:14:01;6.30;99.90
54614;DHT22;40514;52.758;6.360;2022-11-14T06:16:26;6.30;99.90
54614;DHT22;40514;52.758;6.360;2022-11-14T06:18:52;6.30;99.90
54614;DHT22;40514;52.758;6.360;2022-11-14T06:21:21;6.30;99.90
54614;DHT22;40514;52.758;6.360;2022-11-14T06:23:47;6.30;99.90
54614;DHT22;40514;52.758;6.360;2022-11-14T06:26:27;6.30;99.90
54614;DHT22;40514;52.758;6.360;2022-11-14T06:28:57;6.30;99.90
54614;DHT22;40514;52.758;6.360;2022-11-14T06:31:23;6.20;99.90
54614;DHT22;40514;52.758;6.360;2022-11-14T06:33:49;6.20;99.90
54614;DHT22;40514;52.758;6.360;2022-11-14T06:36:15;6.20;99.90
54614;DHT22;40514;52.758;6.360;2022-11-14T06:38:42;6.30;99.90
54614;DHT22;40514;52.758;6.360;2022-11-14T06:41:13;6.20;99.90
54614;DHT22;40514;52.758;6.360;2022-11-14T06:43:41;6.30;99.90
54614;DHT22;40514;52.758;6.360;2022-11-14T06:46:09;6.30;99.90
54614;DHT22;40514;52.758;6.360;2022-11-14T06:48:35;6.20;99.90
54614;DHT22;40514;52.758;6.360;2022-11-14T06:51:01;6.20;99.90
54614;DHT22;40514;52.758;6.360;2022-11-14T06:53:29;6.20;99.90
54614;DHT22;40514;52.758;6.360;2022-11-14T06:55:56;6.20;99.90
54614;DHT22;40514;52.758;6.360;2022-11-14T06:58:25;6.20;99.90
54614;DHT22;40514;52.758;6.360;2022-11-14T07:00:51;6.20;99.90
54614;DHT22;40514;52.758;6.360;2022-11-14T07:03:17;6.20;99.90
54614;DHT22;40514;52.758;6.360;2022-11-14T07:05:42;6.20;99.90
54614;DHT22;40514;52.758;6.360;2022-11-14T07:08:08;6.10;99.90
54614;DHT22;40514;52.758;6.360;2022-11-14T07:10:33;6.10;99.90
54614;DHT22;40514;52.758;6.360;2022-11-14T07:12:59;6.10;99.90
54614;DHT22;40514;52.758;6.360;2022-11-14T07:15:24;6.10;99.90
54614;DHT22;40514;52.758;6.360;2022-11-14T07:17:50;6.00;99.90
54614;DHT22;40514;52.758;6.360;2022-11-14T07:20:16;6.00;99.90
54614;DHT22;40514;52.758;6.360;2022-11-14T07:22:45;6.00;99.90
54614;DHT22;40514;52.758;6.360;2022-11-14T07:25:12;6.00;99.90
54614;DHT22;40514;52.758;6.360;2022-11-14T07:27:37;5.90;99.90
54614;DHT22;40514;52.758;6.360;2022-11-14T07:30:03;5.90;99.90
54614;DHT22;40514;52.758;6.360;2022-11-14T07:32:29;5.90;99.90
54614;DHT22;40514;52.758;6.360;2022-11-14T07:34:54;6.00;99.90
54614;DHT22;40514;52.758;6.360;2022-11-14T07:37:20;5.90;99.90
54614;DHT22;40514;52.758;6.360;2022-11-14T07:39:45;6.00;99.90
54614;DHT22;40514;52.758;6.360;2022-11-14T07:42:11;5.90;99.90
54614;DHT22;40514;52.758;6.360;2022-11-14T07:44:36;5.90;99.90
54614;DHT22;40514;52.758;6.360;2022-11-14T07:47:02;6.00;99.90
54614;DHT22;40514;52.758;6.360;2022-11-14T07:49:28;6.00;99.90
54614;DHT22;40514;52.758;6.360;2022-11-14T07:51:58;6.00;99.90
54614;DHT22;40514;52.758;6.360;2022-11-14T07:54:24;6.10;99.90
54614;DHT22;40514;52.758;6.360;2022-11-14T07:56:53;6.10;99.90
54614;DHT22;40514;52.758;6.360;2022-11-14T07:59:18;6.10;99.90
54614;DHT22;40514;52.758;6.360;2022-11-14T08:01:44;6.10;99.90
54614;DHT22;40514;52.758;6.360;2022-11-14T08:04:09;6.20;99.90
54614;DHT22;40514;52.758;6.360;2022-11-14T08:06:35;6.20;99.90
54614;DHT22;40514;52.758;6.360;2022-11-14T08:09:01;6.30;99.90
54614;DHT22;40514;52.758;6.360;2022-11-14T08:11:26;6.30;99.90
54614;DHT22;40514;52.758;6.360;2022-11-14T08:14:10;6.40;99.90
54614;DHT22;40514;52.758;6.360;2022-11-14T08:16:36;6.40;99.90
54614;DHT22;40514;52.758;6.360;2022-11-14T08:19:01;6.50;99.90
54614;DHT22;40514;52.758;6.360;2022-11-14T08:21:27;6.50;99.90
54614;DHT22;40514;52.758;6.360;2022-11-14T08:23:52;6.60;99.90
54614;DHT22;40514;52.758;6.360;2022-11-14T08:26:18;6.60;99.90
54614;DHT22;40514;52.758;6.360;2022-11-14T08:28:43;6.70;99.90
54614;DHT22;40514;52.758;6.360;2022-11-14T08:31:09;6.70;99.90
54614;DHT22;40514;52.758;6.360;2022-11-14T08:33:35;6.70;99.90
54614;DHT22;40514;52.758;6.360;2022-11-14T08:36:01;6.80;99.90
54614;DHT22;40514;52.758;6.360;2022-11-14T08:38:27;6.80;99.90
54614;DHT22;40514;52.758;6.360;2022-11-14T08:40:56;6.80;99.90
54614;DHT22;40514;52.758;6.360;2022-11-14T08:43:23;6.90;99.90
54614;DHT22;40514;52.758;6.360;2022-11-14T08:45:48;6.80;99.90
54614;DHT22;40514;52.758;6.360;2022-11-14T08:48:14;6.90;99.90
54614;DHT22;40514;52.758;6.360;2022-11-14T08:50:39;6.90;99.90
54614;DHT22;40514;52.758;6.360;2022-11-14T08:53:05;7.00;99.90
54614;DHT22;40514;52.758;6.360;2022-11-14T08:55:30;7.10;99.90
54614;DHT22;40514;52.758;6.360;2022-11-14T08:57:56;7.10;99.90
54614;DHT22;40514;52.758;6.360;2022-11-14T09:00:22;7.30;99.90
54614;DHT22;40514;52.758;6.360;2022-11-14T09:02:47;7.40;99.90
54614;DHT22;40514;52.758;6.360;2022-11-14T09:05:13;7.60;99.90
54614;DHT22;40514;52.758;6.360;2022-11-14T09:07:38;7.70;99.90
54614;DHT22;40514;52.758;6.360;2022-11-14T09:10:04;7.90;99.90
54614;DHT22;40514;52.758;6.360;2022-11-14T09:12:30;8.10;99.90
54614;DHT22;40514;52.758;6.360;2022-11-14T09:14:55;8.60;99.90
54614;DHT22;40514;52.758;6.360;2022-11-14T09:17:21;9.10;99.90
54614;DHT22;40514;52.758;6.360;2022-11-14T09:19:46;9.40;99.90
54614;DHT22;40514;52.758;6.360;2022-11-14T09:22:12;9.60;99.90
54614;DHT22;40514;52.758;6.360;2022-11-14T09:24:37;9.80;99.90
54614;DHT22;40514;52.758;6.360;2022-11-14T09:27:03;9.90;99.90
54614;DHT22;40514;52.758;6.360;2022-11-14T09:29:28;9.90;99.90
54614;DHT22;40514;52.758;6.360;2022-11-14T09:31:54;9.90;99.90
54614;DHT22;40514;52.758;6.360;2022-11-14T09:34:21;9.80;99.90
54614;DHT22;40514;52.758;6.360;2022-11-14T09:36:46;9.60;99.90
54614;DHT22;40514;52.758;6.360;2022-11-14T09:39:12;9.60;99.90
54614;DHT22;40514;52.758;6.360;2022-11-14T09:44:57;9.60;99.90
54614;DHT22;40514;52.758;6.360;2022-11-14T09:47:29;9.80;99.90
54614;DHT22;40514;52.758;6.360;2022-11-14T09:50:13;10.00;99.90
54614;DHT22;40514;52.758;6.360;2022-11-14T09:53:04;10.40;99.90
54614;DHT22;40514;52.758;6.360;2022-11-14T09:55:29;11.00;99.90
54614;DHT22;40514;52.758;6.360;2022-11-14T09:57:55;11.90;99.90
54614;DHT22;40514;52.758;6.360;2022-11-14T10:00:26;12.60;99.90
54614;DHT22;40514;52.758;6.360;2022-11-14T10:03:21;13.30;99.90
54614;DHT22;40514;52.758;6.360;2022-11-14T10:08:41;14.60;99.90
54614;DHT22;40514;52.758;6.360;2022-11-14T10:11:58;15.00;99.90
54614;DHT22;40514;52.758;6.360;2022-11-14T10:14:22;15.40;99.90
54614;DHT22;40514;52.758;6.360;2022-11-14T10:17:04;15.80;99.90
54614;DHT22;40514;52.758;6.360;2022-11-14T10:19:48;16.10;99.00
54614;DHT22;40514;52.758;6.360;2022-11-14T10:25:42;16.80;96.40
54614;DHT22;40514;52.758;6.360;2022-11-14T10:28:25;17.00;98.00
54614;DHT22;40514;52.758;6.360;2022-11-14T10:30:59;17.10;97.90
54614;DHT22;40514;52.758;6.360;2022-11-14T10:39:40;17.70;93.80
54614;DHT22;40514;52.758;6.360;2022-11-14T10:42:27;18.00;90.40
54614;DHT22;40514;52.758;6.360;2022-11-14T10:47:36;18.10;90.70
54614;DHT22;40514;52.758;6.360;2022-11-14T10:50:17;18.40;90.30
54614;DHT22;40514;52.758;6.360;2022-11-14T10:52:44;18.50;86.60
54614;DHT22;40514;52.758;6.360;2022-11-14T10:55:17;18.50;87.80
54614;DHT22;40514;52.758;6.360;2022-11-14T10:57:47;18.60;85.30
54614;DHT22;40514;52.758;6.360;2022-11-14T11:00:17;18.90;84.60
54614;DHT22;40514;52.758;6.360;2022-11-14T11:02:52;19.20;82.10
54614;DHT22;40514;52.758;6.360;2022-11-14T11:05:23;19.40;79.70
54614;DHT22;40514;52.758;6.360;2022-11-14T11:07:50;19.60;79.40
54614;DHT22;40514;52.758;6.360;2022-11-14T11:10:40;19.80;77.50
54614;DHT22;40514;52.758;6.360;2022-11-14T11:13:36;20.00;74.90
54614;DHT22;40514;52.758;6.360;2022-11-14T11:16:05;20.40;70.30
54614;DHT22;40514;52.758;6.360;2022-11-14T11:18:35;20.50;73.00
54614;DHT22;40514;52.758;6.360;2022-11-14T11:21:05;20.40;70.50
54614;DHT22;40514;52.758;6.360;2022-11-14T11:23:32;19.90;71.20
54614;DHT22;40514;52.758;6.360;2022-11-14T11:26:16;19.30;71.80
54614;DHT22;40514;52.758;6.360;2022-11-14T11:28:42;18.60;71.80
54614;DHT22;40514;52.758;6.360;2022-11-14T11:31:09;17.80;74.50
54614;DHT22;40514;52.758;6.360;2022-11-14T11:33:37;17.20;76.80
54614;DHT22;40514;52.758;6.360;2022-11-14T11:36:06;17.00;78.20
54614;DHT22;40514;52.758;6.360;2022-11-14T11:38:34;16.90;78.60
54614;DHT22;40514;52.758;6.360;2022-11-14T11:41:15;17.00;78.50
54614;DHT22;40514;52.758;6.360;2022-11-14T11:43:46;16.60;77.60
54614;DHT22;40514;52.758;6.360;2022-11-14T11:46:16;16.30;80.60
54614;DHT22;40514;52.758;6.360;2022-11-14T11:48:45;16.30;82.20
54614;DHT22;40514;52.758;6.360;2022-11-14T11:51:16;16.20;82.30
54614;DHT22;40514;52.758;6.360;2022-11-14T11:53:46;16.00;83.70
54614;DHT22;40514;52.758;6.360;2022-11-14T11:56:23;16.00;85.00
54614;DHT22;40514;52.758;6.360;2022-11-14T11:58:51;15.80;85.80
54614;DHT22;40514;52.758;6.360;2022-11-14T12:01:19;15.50;87.50
54614;DHT22;40514;52.758;6.360;2022-11-14T12:03:51;15.10;89.00
54614;DHT22;40514;52.758;6.360;2022-11-14T12:06:20;15.00;90.50
54614;DHT22;40514;52.758;6.360;2022-11-14T12:11:24;14.60;91.40
54614;DHT22;40514;52.758;6.360;2022-11-14T12:25:48;13.90;93.90
54614;DHT22;40514;52.758;6.360;2022-11-14T12:31:18;13.60;95.20
54614;DHT22;40514;52.758;6.360;2022-11-14T12:34:03;13.60;96.00
54614;DHT22;40514;52.758;6.360;2022-11-14T12:36:31;13.60;96.40
54614;DHT22;40514;52.758;6.360;2022-11-14T12:38:58;13.60;96.40
54614;DHT22;40514;52.758;6.360;2022-11-14T12:41:31;13.40;96.70
54614;DHT22;40514;52.758;6.360;2022-11-14T13:00:32;12.20;99.90
54614;DHT22;40514;52.758;6.360;2022-11-14T13:05:46;12.10;99.90
54614;DHT22;40514;52.758;6.360;2022-11-14T13:14:26;11.70;99.90
54614;DHT22;40514;52.758;6.360;2022-11-14T13:20:21;11.50;99.90
54614;DHT22;40514;52.758;6.360;2022-11-14T13:33:42;11.30;99.90
54614;DHT22;40514;52.758;6.360;2022-11-14T13:50:06;11.20;99.90
54614;DHT22;40514;52.758;6.360;2022-11-14T13:52:38;11.10;99.90
54614;DHT22;40514;52.758;6.360;2022-11-14T13:55:04;11.10;99.90
54614;DHT22;40514;52.758;6.360;2022-11-14T14:00:18;11.00;99.90
54614;DHT22;40514;52.758;6.360;2022-11-14T14:02:50;11.00;99.90
54614;DHT22;40514;52.758;6.360;2022-11-14T14:05:24;10.90;99.90
54614;DHT22;40514;52.758;6.360;2022-11-14T14:11:06;11.00;99.90
54614;DHT22;40514;52.758;6.360;2022-11-14T14:22:26;10.90;99.90
54614;DHT22;40514;52.758;6.360;2022-11-14T14:31:20;10.70;99.90
54614;DHT22;40514;52.758;6.360;2022-11-14T14:33:50;10.70;99.90
54614;DHT22;40514;52.758;6.360;2022-11-14T14:36:27;10.70;99.90
54614;DHT22;40514;52.758;6.360;2022-11-14T14:39:14;10.70;99.90
54614;DHT22;40514;52.758;6.360;2022-11-14T14:41:40;10.70;99.90
54614;DHT22;40514;52.758;6.360;2022-11-14T14:44:25;10.60;99.90
54614;DHT22;40514;52.758;6.360;2022-11-14T14:46:51;10.60;99.90
54614;DHT22;40514;52.758;6.360;2022-11-14T14:49:26;10.60;99.90
54614;DHT22;40514;52.758;6.360;2022-11-14T14:51:54;10.60;99.90
54614;DHT22;40514;52.758;6.360;2022-11-14T14:54:27;10.60;99.90
54614;DHT22;40514;52.758;6.360;2022-11-14T14:56:58;10.50;99.90
54614;DHT22;40514;52.758;6.360;2022-11-14T14:59:26;10.40;99.90
54614;DHT22;40514;52.758;6.360;2022-11-14T15:01:52;10.40;99.90
54614;DHT22;40514;52.758;6.360;2022-11-14T15:04:21;10.40;99.90
54614;DHT22;40514;52.758;6.360;2022-11-14T15:06:48;10.30;99.90
54614;DHT22;40514;52.758;6.360;2022-11-14T15:09:19;10.30;99.90
54614;DHT22;40514;52.758;6.360;2022-11-14T15:11:48;10.10;99.90
54614;DHT22;40514;52.758;6.360;2022-11-14T15:14:27;10.30;99.90
54614;DHT22;40514;52.758;6.360;2022-11-14T15:16:54;10.30;99.90
54614;DHT22;40514;52.758;6.360;2022-11-14T15:19:23;10.20;99.90
54614;DHT22;40514;52.758;6.360;2022-11-14T15:22:21;10.20;99.90
54614;DHT22;40514;52.758;6.360;2022-11-14T15:25:16;10.20;99.90
54614;DHT22;40514;52.758;6.360;2022-11-14T15:27:47;10.20;99.90
54614;DHT22;40514;52.758;6.360;2022-11-14T15:30:23;10.30;99.90
54614;DHT22;40514;52.758;6.360;2022-11-14T15:32:51;10.30;99.90
54614;DHT22;40514;52.758;6.360;2022-11-14T15:37:59;10.30;99.90
54614;DHT22;40514;52.758;6.360;2022-11-14T15:40:26;10.20;99.90
54614;DHT22;40514;52.758;6.360;2022-11-14T15:42:51;10.20;99.90
54614;DHT22;40514;52.758;6.360;2022-11-14T15:45:28;10.10;99.90
54614;DHT22;40514;52.758;6.360;2022-11-14T15:47:58;10.10;99.90
54614;DHT22;40514;52.758;6.360;2022-11-14T15:50:42;10.10;99.90
54614;DHT22;40514;52.758;6.360;2022-11-14T15:53:23;10.10;99.90
54614;DHT22;40514;52.758;6.360;2022-11-14T15:55:49;10.10;99.90
54614;DHT22;40514;52.758;6.360;2022-11-14T15:58:15;10.10;99.90
54614;DHT22;40514;52.758;6.360;2022-11-14T16:00:51;10.00;99.90
54614;DHT22;40514;52.758;6.360;2022-11-14T16:03:19;10.00;99.90
54614;DHT22;40514;52.758;6.360;2022-11-14T16:05:46;10.00;99.90
54614;DHT22;40514;52.758;6.360;2022-11-14T16:08:12;10.00;99.90
54614;DHT22;40514;52.758;6.360;2022-11-14T16:10:38;10.00;99.90
54614;DHT22;40514;52.758;6.360;2022-11-14T16:13:04;10.00;99.90
54614;DHT22;40514;52.758;6.360;2022-11-14T16:15:29;10.00;99.90
54614;DHT22;40514;52.758;6.360;2022-11-14T16:17:55;9.90;99.90
54614;DHT22;40514;52.758;6.360;2022-11-14T16:20:26;9.90;99.90
54614;DHT22;40514;52.758;6.360;2022-11-14T16:22:52;9.90;99.90
54614;DHT22;40514;52.758;6.360;2022-11-14T16:25:27;9.90;99.90
54614;DHT22;40514;52.758;6.360;2022-11-14T16:27:53;9.90;99.90
54614;DHT22;40514;52.758;6.360;2022-11-14T16:30:21;9.90;99.90
54614;DHT22;40514;52.758;6.360;2022-11-14T16:32:48;10.00;99.90
54614;DHT22;40514;52.758;6.360;2022-11-14T16:35:15;10.00;99.90
54614;DHT22;40514;52.758;6.360;2022-11-14T16:37:42;10.00;99.90
54614;DHT22;40514;52.758;6.360;2022-11-14T16:40:14;10.00;99.90
54614;DHT22;40514;52.758;6.360;2022-11-14T16:42:47;10.00;99.90
54614;DHT22;40514;52.758;6.360;2022-11-14T16:45:14;10.00;99.90
54614;DHT22;40514;52.758;6.360;2022-11-14T16:47:39;10.00;99.90
54614;DHT22;40514;52.758;6.360;2022-11-14T16:50:05;10.00;99.90
54614;DHT22;40514;52.758;6.360;2022-11-14T16:52:31;10.00;99.90
54614;DHT22;40514;52.758;6.360;2022-11-14T16:54:57;10.00;99.90
54614;DHT22;40514;52.758;6.360;2022-11-14T16:57:23;10.00;99.90
54614;DHT22;40514;52.758;6.360;2022-11-14T16:59:48;10.00;99.90
54614;DHT22;40514;52.758;6.360;2022-11-14T17:02:16;10.00;99.90
54614;DHT22;40514;52.758;6.360;2022-11-14T17:04:43;10.00;99.90
54614;DHT22;40514;52.758;6.360;2022-11-14T17:07:09;10.00;99.90
54614;DHT22;40514;52.758;6.360;2022-11-14T17:09:35;10.00;99.90
54614;DHT22;40514;52.758;6.360;2022-11-14T17:12:01;10.00;99.90
54614;DHT22;40514;52.758;6.360;2022-11-14T17:14:26;10.00;99.90
54614;DHT22;40514;52.758;6.360;2022-11-14T17:16:52;10.00;99.90
54614;DHT22;40514;52.758;6.360;2022-11-14T17:19:17;10.00;99.90
54614;DHT22;40514;52.758;6.360;2022-11-14T17:21:43;10.00;99.90
54614;DHT22;40514;52.758;6.360;2022-11-14T17:24:09;10.00;99.90
54614;DHT22;40514;52.758;6.360;2022-11-14T17:26:35;9.90;99.90
54614;DHT22;40514;52.758;6.360;2022-11-14T17:29:03;9.90;99.90
54614;DHT22;40514;52.758;6.360;2022-11-14T17:31:30;9.90;99.90
54614;DHT22;40514;52.758;6.360;2022-11-14T17:33:57;9.90;99.90
54614;DHT22;40514;52.758;6.360;2022-11-14T17:36:24;9.80;99.90
54614;DHT22;40514;52.758;6.360;2022-11-14T17:38:50;9.90;99.90
54614;DHT22;40514;52.758;6.360;2022-11-14T17:41:15;9.90;99.90